Time;durP1;ratioP1;P1;durP2;ratioP2;P2;SDS_P1;SDS_P2;PMS_P1;PMS_P2;Temp;Humidity;BMP_temperature;BMP_pressure;BME280_temperature;BME280_humidity;BME280_pressure;Samples;Min_cycle;Max_cycle;Signal;HPM_P1;HPM_P2
2023/04/23 00:01:26;;;;;;;196.40;70.47;;;9.20;99.90;;;;;;4911513;29;20265;-85
2023/04/23 00:03:57;;;;;;;191.80;68.80;;;9.20;99.90;;;;;;4930893;29;20238;-84
2023/04/23 00:06:27;;;;;;;203.37;69.87;;;9.20;99.90;;;;;;4931584;29;20245;-86
2023/04/23 00:08:59;;;;;;;203.73;69.73;;;9.20;99.90;;;;;;4928223;29;20194;-85
2023/04/23 00:11:27;;;;;;;192.87;71.30;;;9.20;99.90;;;;;;4913763;29;20245;-84
2023/04/23 00:13:54;;;;;;;195.73;70.23;;;9.20;99.90;;;;;;4917666;29;20227;-85
2023/04/23 00:16:21;;;;;;;182.13;65.63;;;9.20;99.90;;;;;;4921556;29;20213;-85
2023/04/23 00:18:49;;;;;;;189.73;67.30;;;9.20;99.90;;;;;;4917505;29;20205;-86
2023/04/23 00:21:17;;;;;;;201.90;71.03;;;9.20;99.90;;;;;;4921350;29;20229;-85
2023/04/23 00:23:43;;;;;;;191.30;69.13;;;9.20;99.90;;;;;;4917367;29;20318;-86
2023/04/23 00:26:11;;;;;;;211.70;69.17;;;9.20;99.90;;;;;;4908238;29;20213;-86
2023/04/23 00:28:38;;;;;;;201.23;71.37;;;9.20;99.90;;;;;;4919940;29;20213;-85
2023/04/23 00:31:06;;;;;;;207.93;68.70;;;9.20;99.90;;;;;;4916173;29;20236;-86
2023/04/23 00:33:34;;;;;;;215.40;71.30;;;9.10;99.90;;;;;;4922940;29;20696;-86
2023/04/23 00:36:03;;;;;;;218.57;74.27;;;9.10;99.90;;;;;;4914106;29;20205;-85
2023/04/23 00:38:29;;;;;;;201.10;70.27;;;9.10;99.90;;;;;;4910170;29;20206;-86
2023/04/23 00:40:57;;;;;;;203.97;72.30;;;9.10;99.90;;;;;;4911431;29;20205;-86
2023/04/23 00:43:24;;;;;;;215.20;70.40;;;9.10;99.90;;;;;;4909862;29;20242;-85
2023/04/23 00:45:51;;;;;;;208.90;68.03;;;9.20;99.90;;;;;;4909990;29;20253;-84
2023/04/23 00:48:21;;;;;;;214.43;71.30;;;9.10;99.90;;;;;;4911980;29;20242;-85
2023/04/23 00:50:50;;;;;;;224.80;71.70;;;9.10;99.90;;;;;;4902560;29;20676;-87
2023/04/23 00:53:20;;;;;;;199.27;67.17;;;9.10;99.90;;;;;;4894873;29;20690;-84
2023/04/23 00:55:47;;;;;;;231.00;69.80;;;9.10;99.90;;;;;;4924465;29;20277;-85
2023/04/23 00:58:14;;;;;;;211.80;71.20;;;9.10;99.90;;;;;;4912899;29;20233;-84
2023/04/23 01:00:46;;;;;;;212.93;68.27;;;9.00;99.90;;;;;;4910227;29;20230;-87
2023/04/23 01:03:20;;;;;;;232.80;69.53;;;9.00;99.90;;;;;;4913123;29;20234;-84
2023/04/23 01:05:50;;;;;;;210.23;71.03;;;9.00;99.90;;;;;;4916712;29;20208;-87
2023/04/23 01:08:23;;;;;;;207.17;68.97;;;9.00;99.90;;;;;;4915622;29;20276;-84
2023/04/23 01:10:54;;;;;;;212.83;67.43;;;9.00;99.90;;;;;;4914454;29;20249;-86
2023/04/23 01:13:21;;;;;;;215.40;66.80;;;8.90;99.90;;;;;;4896291;29;20225;-85
2023/04/23 01:15:51;;;;;;;211.07;69.63;;;8.90;99.90;;;;;;4909174;29;20233;-85
2023/04/23 01:18:19;;;;;;;213.10;69.23;;;8.90;99.90;;;;;;4912310;29;20295;-84
2023/04/23 01:20:46;;;;;;;207.07;70.03;;;8.90;99.90;;;;;;4923025;29;20223;-84
2023/04/23 01:23:13;;;;;;;204.47;66.37;;;8.80;99.90;;;;;;4913984;29;20577;-85
2023/04/23 01:25:40;;;;;;;187.20;62.20;;;8.70;99.90;;;;;;4915431;29;20265;-84
2023/04/23 01:28:07;;;;;;;206.83;67.50;;;8.80;99.90;;;;;;4916088;29;21240;-84
2023/04/23 01:30:35;;;;;;;196.53;67.90;;;8.70;99.90;;;;;;4916931;29;20300;-85
2023/04/23 01:33:05;;;;;;;199.23;65.30;;;8.70;99.90;;;;;;4919359;29;20711;-85
2023/04/23 01:35:34;;;;;;;213.87;67.80;;;8.60;99.90;;;;;;4914457;29;20236;-85
2023/04/23 01:38:03;;;;;;;203.17;66.30;;;8.70;99.90;;;;;;4919780;29;20209;-88
2023/04/23 01:40:30;;;;;;;213.67;67.50;;;8.60;99.90;;;;;;4914447;29;20966;-85
2023/04/23 01:42:57;;;;;;;197.80;64.17;;;8.60;99.90;;;;;;4913776;29;20237;-84
2023/04/23 01:45:25;;;;;;;195.00;61.67;;;8.50;99.90;;;;;;4903260;29;20234;-85
2023/04/23 01:47:52;;;;;;;194.27;60.87;;;8.50;99.90;;;;;;4899074;29;20210;-87
2023/04/23 01:50:23;;;;;;;195.73;62.83;;;8.40;99.90;;;;;;4921961;29;20208;-85
2023/04/23 01:52:50;;;;;;;207.63;64.50;;;8.40;99.90;;;;;;4913213;29;20243;-86
2023/04/23 01:55:19;;;;;;;205.93;66.23;;;8.20;99.90;;;;;;4895844;29;20658;-85
2023/04/23 01:57:46;;;;;;;193.13;63.43;;;8.40;99.90;;;;;;4896826;29;20240;-85
2023/04/23 02:00:14;;;;;;;192.87;61.13;;;8.40;99.90;;;;;;4911928;29;20232;-85
2023/04/23 02:02:43;;;;;;;215.90;66.07;;;8.50;99.90;;;;;;4911248;29;20806;-87
2023/04/23 02:05:15;;;;;;;196.97;61.20;;;8.50;99.90;;;;;;4915457;29;20257;-84
2023/04/23 02:07:47;;;;;;;194.93;62.23;;;8.60;99.90;;;;;;4914917;29;20269;-86
2023/04/23 02:10:21;;;;;;;201.60;61.90;;;8.50;99.90;;;;;;4915842;29;20240;-86
2023/04/23 02:12:48;;;;;;;216.30;66.03;;;8.60;99.90;;;;;;4913500;29;20742;-87
2023/04/23 02:15:16;;;;;;;210.57;64.33;;;8.60;99.90;;;;;;4909108;29;20232;-86
2023/04/23 02:17:43;;;;;;;207.80;65.30;;;8.70;99.90;;;;;;4911690;29;20589;-86
2023/04/23 02:20:10;;;;;;;207.67;63.27;;;8.80;99.90;;;;;;4899521;29;20671;-86
2023/04/23 02:22:40;;;;;;;204.97;64.23;;;8.70;99.90;;;;;;4915334;29;20749;-85
2023/04/23 02:25:08;;;;;;;199.60;62.27;;;8.70;99.90;;;;;;4926142;29;20210;-85
2023/04/23 02:27:35;;;;;;;217.17;66.50;;;8.70;99.90;;;;;;4911520;29;20324;-86
2023/04/23 02:30:03;;;;;;;213.17;64.80;;;8.70;99.90;;;;;;4921303;29;20324;-85
2023/04/23 02:32:30;;;;;;;198.63;63.60;;;8.70;99.90;;;;;;4924921;29;20206;-87
2023/04/23 02:35:02;;;;;;;206.93;63.80;;;8.80;99.90;;;;;;4921251;29;20201;-84
2023/04/23 02:37:31;;;;;;;208.33;66.67;;;8.80;99.90;;;;;;4900446;29;20305;-87
2023/04/23 02:39:58;;;;;;;214.33;65.30;;;8.80;99.90;;;;;;4907078;29;20229;-85
2023/04/23 02:42:26;;;;;;;208.07;65.00;;;8.80;99.90;;;;;;4917119;29;20206;-87
2023/04/23 02:44:53;;;;;;;209.80;65.43;;;8.80;99.90;;;;;;4913764;29;20407;-86
2023/04/23 02:47:20;;;;;;;210.80;63.80;;;8.90;99.90;;;;;;4917327;29;20213;-85
2023/04/23 02:49:48;;;;;;;188.53;62.20;;;8.80;99.90;;;;;;4916783;29;20206;-84
2023/04/23 02:52:20;;;;;;;200.07;61.70;;;8.80;99.90;;;;;;4895992;29;20264;-85
2023/04/23 02:54:47;;;;;;;191.20;60.10;;;8.70;99.90;;;;;;4895292;29;20327;-85
2023/04/23 02:57:18;;;;;;;193.20;61.20;;;8.80;99.90;;;;;;4912811;29;20299;-84
2023/04/23 02:59:45;;;;;;;190.63;64.57;;;8.80;99.90;;;;;;4911999;29;20647;-85
2023/04/23 03:02:12;;;;;;;181.43;57.73;;;8.70;99.90;;;;;;4900982;29;20215;-86
2023/04/23 03:04:42;;;;;;;192.30;65.00;;;8.80;99.90;;;;;;4912110;29;20621;-84
2023/04/23 03:07:09;;;;;;;194.70;62.33;;;8.80;99.90;;;;;;4891349;29;20210;-86
2023/04/23 03:09:37;;;;;;;196.57;62.73;;;8.80;99.90;;;;;;4907843;29;20300;-85
2023/04/23 03:12:04;;;;;;;194.53;61.03;;;9.00;99.90;;;;;;4893110;29;20218;-85
2023/04/23 03:14:34;;;;;;;197.87;62.77;;;8.80;99.90;;;;;;4893902;29;20235;-84
2023/04/23 03:17:01;;;;;;;202.70;62.47;;;8.90;99.90;;;;;;4877423;29;20214;-85
2023/04/23 03:19:29;;;;;;;205.70;64.87;;;8.80;99.90;;;;;;4900528;29;20210;-85
2023/04/23 03:21:56;;;;;;;182.20;60.77;;;8.90;99.90;;;;;;4895577;29;20214;-85
2023/04/23 03:24:23;;;;;;;205.17;62.90;;;9.00;99.90;;;;;;4892788;29;20621;-84
2023/04/23 03:26:50;;;;;;;200.13;63.90;;;8.90;99.90;;;;;;4897456;29;20221;-85
2023/04/23 03:29:18;;;;;;;204.87;67.97;;;8.90;99.90;;;;;;4893724;29;20226;-87
2023/04/23 03:31:45;;;;;;;216.37;67.60;;;8.90;99.90;;;;;;4893531;29;20317;-85
2023/04/23 03:34:12;;;;;;;215.33;69.90;;;9.00;99.90;;;;;;4893972;29;20214;-86
2023/04/23 03:36:39;;;;;;;208.20;68.87;;;9.00;99.90;;;;;;4895237;29;20575;-87
2023/04/23 03:39:06;;;;;;;218.10;72.63;;;9.00;99.90;;;;;;4892900;29;20242;-85
2023/04/23 03:41:36;;;;;;;213.47;71.50;;;9.10;99.90;;;;;;4877893;29;20210;-85
2023/04/23 03:44:03;;;;;;;217.03;71.50;;;9.10;99.90;;;;;;4892515;29;20238;-85
2023/04/23 03:46:33;;;;;;;215.43;69.60;;;9.10;99.90;;;;;;4893494;29;20333;-85
2023/04/23 03:49:00;;;;;;;214.13;70.77;;;9.10;99.90;;;;;;4893870;29;20218;-85
2023/04/23 03:51:27;;;;;;;213.40;69.80;;;9.20;99.90;;;;;;4894827;29;20215;-84
2023/04/23 03:53:54;;;;;;;209.63;66.23;;;9.10;99.90;;;;;;4901914;29;20210;-85
2023/04/23 03:56:21;;;;;;;199.30;69.20;;;9.20;99.90;;;;;;4904675;29;20206;-86
2023/04/23 03:58:52;;;;;;;210.20;70.37;;;9.20;99.90;;;;;;4898815;29;20219;-84
2023/04/23 04:01:19;;;;;;;190.13;64.13;;;9.20;99.90;;;;;;4905332;29;20293;-84
2023/04/23 04:03:46;;;;;;;191.97;62.73;;;9.20;99.90;;;;;;4901896;29;20241;-84
2023/04/23 04:06:13;;;;;;;191.20;62.27;;;9.30;99.90;;;;;;4882108;29;20214;-86
2023/04/23 04:08:43;;;;;;;202.03;64.90;;;9.30;99.90;;;;;;4883357;29;20214;-84
2023/04/23 04:11:11;;;;;;;193.93;65.20;;;9.20;99.90;;;;;;4911419;29;20237;-84
2023/04/23 04:13:38;;;;;;;171.63;59.83;;;9.20;99.90;;;;;;4916667;29;20216;-84
2023/04/23 04:16:05;;;;;;;186.17;63.10;;;9.20;99.90;;;;;;4898598;29;20230;-86
2023/04/23 04:18:32;;;;;;;168.07;59.83;;;9.20;99.90;;;;;;4901199;29;21143;-85
2023/04/23 04:20:59;;;;;;;173.40;58.30;;;9.10;99.90;;;;;;4913563;29;20252;-86
2023/04/23 04:23:26;;;;;;;183.63;61.47;;;9.10;99.90;;;;;;4921033;29;20210;-88
2023/04/23 04:25:56;;;;;;;182.60;59.50;;;9.10;99.90;;;;;;4916709;29;20229;-85
2023/04/23 04:28:26;;;;;;;183.23;58.93;;;9.00;99.90;;;;;;4915895;29;20745;-83
2023/04/23 04:30:56;;;;;;;182.27;57.63;;;9.10;99.90;;;;;;4913255;29;20272;-85
2023/04/23 04:33:24;;;;;;;188.40;59.43;;;9.00;99.90;;;;;;4919472;29;20213;-86
2023/04/23 04:35:56;;;;;;;181.80;59.83;;;9.00;99.90;;;;;;4916061;29;20206;-86
2023/04/23 04:38:23;;;;;;;188.40;63.47;;;9.00;99.90;;;;;;4903067;29;20205;-83
2023/04/23 04:40:50;;;;;;;177.07;59.27;;;9.00;99.90;;;;;;4904787;29;20276;-84
2023/04/23 04:43:20;;;;;;;186.70;60.67;;;9.00;99.90;;;;;;4916380;29;20571;-86
2023/04/23 04:45:47;;;;;;;172.90;56.53;;;9.00;99.90;;;;;;4916377;29;20284;-85
2023/04/23 04:48:16;;;;;;;180.00;58.13;;;9.00;99.90;;;;;;4919173;29;20690;-86
2023/04/23 04:50:43;;;;;;;173.60;56.23;;;8.90;99.90;;;;;;4912991;29;20210;-85
2023/04/23 04:53:10;;;;;;;172.63;58.77;;;9.00;99.90;;;;;;4921872;29;20206;-85
2023/04/23 04:55:37;;;;;;;161.60;57.73;;;9.10;99.90;;;;;;4901063;29;20224;-86
2023/04/23 04:58:05;;;;;;;171.30;57.73;;;9.00;99.90;;;;;;4915111;29;20209;-87
2023/04/23 05:00:33;;;;;;;170.30;56.27;;;9.00;99.90;;;;;;4923824;29;20209;-86
2023/04/23 05:03:00;;;;;;;164.63;54.53;;;9.00;99.90;;;;;;4922538;29;20295;-85
2023/04/23 05:05:29;;;;;;;164.17;54.67;;;9.00;99.90;;;;;;4916017;29;20730;-85
2023/04/23 05:08:01;;;;;;;178.87;59.43;;;9.00;99.90;;;;;;4917895;29;20210;-86
2023/04/23 05:10:36;;;;;;;173.50;58.23;;;9.00;99.90;;;;;;4918083;29;20234;-85
2023/04/23 05:13:03;;;;;;;173.03;58.93;;;9.10;99.90;;;;;;4919615;29;20212;-87
2023/04/23 05:15:30;;;;;;;169.10;57.30;;;9.00;99.90;;;;;;4902786;29;20233;-84
2023/04/23 05:17:57;;;;;;;178.63;59.80;;;9.10;99.90;;;;;;4916978;29;20206;-85
2023/04/23 05:20:31;;;;;;;164.90;56.73;;;9.20;99.90;;;;;;4918962;29;20275;-86
2023/04/23 05:22:58;;;;;;;167.60;57.43;;;9.30;99.90;;;;;;4915148;29;20253;-88
2023/04/23 05:25:29;;;;;;;153.30;54.70;;;9.30;99.90;;;;;;4912807;29;20256;-86
2023/04/23 05:28:00;;;;;;;154.10;55.03;;;9.40;99.90;;;;;;4899363;29;20321;-87
2023/04/23 05:30:29;;;;;;;147.90;55.60;;;9.50;99.90;;;;;;4923773;29;20656;-85
2023/04/23 05:32:56;;;;;;;153.30;54.87;;;9.60;99.90;;;;;;4914565;29;20223;-88
2023/04/23 05:35:26;;;;;;;124.90;50.73;;;9.70;99.90;;;;;;4901776;29;20229;-84
2023/04/23 05:38:02;;;;;;;125.17;50.50;;;9.70;99.90;;;;;;4897314;29;20207;-86
2023/04/23 05:40:31;;;;;;;120.20;47.57;;;9.80;99.90;;;;;;4912301;29;20211;-86
2023/04/23 05:43:04;;;;;;;120.33;48.63;;;9.90;99.90;;;;;;4911627;29;20891;-84
2023/04/23 05:45:32;;;;;;;117.23;47.07;;;10.00;99.90;;;;;;4912021;29;20254;-87
2023/04/23 05:48:00;;;;;;;119.40;46.90;;;9.90;99.90;;;;;;4911837;29;20205;-86
2023/04/23 05:50:29;;;;;;;104.43;45.23;;;10.00;99.90;;;;;;4915444;29;20211;-87
2023/04/23 05:52:56;;;;;;;117.77;47.40;;;10.00;99.90;;;;;;4912980;29;20223;-85
2023/04/23 05:55:24;;;;;;;106.97;45.63;;;10.00;99.90;;;;;;4902325;29;20212;-88
2023/04/23 05:58:01;;;;;;;;;;;;;;;;;;;;;
2023/04/23 06:00:52;;;;;;;105.03;44.57;;;10.00;99.90;;;;;;4905413;29;20227;-88
2023/04/23 06:03:19;;;;;;;109.03;45.83;;;10.10;99.90;;;;;;4908760;29;20220;-85
2023/04/23 06:05:59;;;;;;;100.20;44.77;;;10.10;99.90;;;;;;4913652;29;20251;-86
2023/04/23 06:08:34;;;;;;;97.93;43.27;;;10.20;99.90;;;;;;4917580;29;20307;-92
2023/04/23 06:11:02;;;;;;;103.23;43.77;;;10.20;99.90;;;;;;4922320;29;20263;-88
2023/04/23 06:14:11;;;;;;;93.53;41.97;;;10.10;99.90;;;;;;4902709;29;20233;-89
2023/04/23 06:16:40;;;;;;;86.93;40.43;;;10.20;99.90;;;;;;4924534;29;20205;-86
2023/04/23 06:19:11;;;;;;;113.77;49.83;;;10.20;99.90;;;;;;4915346;29;20215;-89
2023/04/23 06:21:42;;;;;;;102.10;44.73;;;10.20;99.90;;;;;;4915597;29;20240;-88
2023/04/23 06:24:14;;;;;;;86.57;42.40;;;10.50;99.90;;;;;;4917792;29;20669;-88
2023/04/23 06:26:41;;;;;;;91.53;42.37;;;10.70;99.90;;;;;;4922411;29;20206;-86
2023/04/23 06:29:08;;;;;;;69.00;37.17;;;11.20;99.90;;;;;;4916777;29;20221;-86
2023/04/23 06:31:43;;;;;;;57.47;33.20;;;12.10;99.90;;;;;;4914904;29;20236;-84
2023/04/23 06:34:10;;;;;;;50.87;31.87;;;13.10;99.90;;;;;;4914631;29;20210;-90
2023/04/23 06:36:40;;;;;;;47.10;28.73;;;14.10;99.90;;;;;;4915572;29;20261;-85
2023/04/23 06:39:07;;;;;;;47.60;28.95;;;15.70;99.90;;;;;;4896640;29;20202;-87
2023/04/23 06:41:34;;;;;;;42.50;27.60;;;15.70;99.90;;;;;;4894771;29;20388;-87
2023/04/23 06:44:05;;;;;;;37.42;25.38;;;16.50;99.90;;;;;;4896209;29;20214;-91
2023/04/23 06:46:32;;;;;;;38.15;24.58;;;17.10;99.90;;;;;;4901134;29;21238;-88
2023/04/23 06:48:59;;;;;;;35.28;24.38;;;17.80;99.90;;;;;;4916988;29;20663;-86
2023/04/23 06:51:26;;;;;;;34.65;23.65;;;18.40;99.90;;;;;;4899503;29;20218;-87
2023/04/23 06:53:54;;;;;;;35.28;23.08;;;19.00;99.90;;;;;;4920570;29;20216;-90
2023/04/23 06:56:21;;;;;;;30.92;22.65;;;19.60;99.90;;;;;;4921208;29;20288;-90
2023/04/23 06:58:53;;;;;;;30.02;21.42;;;19.80;99.90;;;;;;4927999;29;20225;-93
2023/04/23 07:01:22;;;;;;;27.50;20.85;;;20.10;99.90;;;;;;4921985;29;20186;-91
2023/04/23 07:03:51;;;;;;;25.10;19.88;;;20.80;99.90;;;;;;4936685;29;20201;-92
2023/04/23 07:06:27;;;;;;;24.50;19.48;;;20.90;99.90;;;;;;4925059;29;20237;-88
2023/04/23 07:08:54;;;;;;;23.05;18.23;;;21.30;99.90;;;;;;4921247;29;20242;-90
2023/04/23 07:11:22;;;;;;;22.33;18.10;;;21.30;99.90;;;;;;4903932;29;20261;-89
2023/04/23 07:13:50;;;;;;;22.45;18.13;;;21.40;99.90;;;;;;4917519;29;20261;-88
2023/04/23 07:16:18;;;;;;;18.75;16.00;;;21.70;99.90;;;;;;4916792;29;20210;-91
2023/04/23 07:18:50;;;;;;;22.02;17.67;;;22.00;99.90;;;;;;4906327;29;20201;-89
2023/04/23 07:21:26;;;;;;;21.80;17.02;;;22.00;99.90;;;;;;4908402;29;20655;-90
2023/04/23 07:24:05;;;;;;;21.02;15.75;;;22.20;99.90;;;;;;4908600;29;20205;-95
2023/04/23 07:26:35;;;;;;;17.58;14.60;;;22.50;99.90;;;;;;4924191;29;20203;-95
2023/04/23 07:29:10;;;;;;;17.13;14.13;;;22.80;99.90;;;;;;4906941;29;20754;-89
2023/04/23 07:31:40;;;;;;;18.60;14.55;;;23.00;99.90;;;;;;4923418;29;20221;-89
2023/04/23 07:34:09;;;;;;;15.25;13.15;;;23.30;99.90;;;;;;4916766;29;20214;-90
2023/04/23 07:36:37;;;;;;;16.00;13.32;;;23.20;99.90;;;;;;4900527;29;20202;-89
2023/04/23 07:39:06;;;;;;;14.95;12.55;;;23.30;99.90;;;;;;4907366;29;20210;-89
2023/04/23 07:41:36;;;;;;;15.10;12.88;;;23.40;99.90;;;;;;4919902;29;20258;-87
2023/04/23 07:44:08;;;;;;;16.15;12.18;;;23.50;99.90;;;;;;4903267;29;20232;-88
2023/04/23 07:46:41;;;;;;;14.18;12.35;;;23.60;99.90;;;;;;4903332;29;20217;-92
2023/04/23 07:49:11;;;;;;;15.43;12.60;;;23.60;99.90;;;;;;4917811;29;20219;-91
2023/04/23 07:51:40;;;;;;;14.20;12.20;;;23.70;99.90;;;;;;4912470;29;20202;-89
2023/04/23 07:54:08;;;;;;;15.23;12.05;;;23.60;99.90;;;;;;4910603;29;20209;-88
2023/04/23 07:56:38;;;;;;;16.23;11.20;;;23.70;99.90;;;;;;4918618;29;20229;-88
2023/04/23 07:59:08;;;;;;;11.60;10.32;;;23.90;99.90;;;;;;4918419;29;20205;-89
2023/04/23 08:01:46;;;;;;;12.02;9.80;;;24.10;99.90;;;;;;4937354;29;20303;-91
2023/04/23 08:04:21;;;;;;;10.73;9.15;;;24.20;99.90;;;;;;4919774;29;20209;-90
2023/04/23 08:06:57;;;;;;;10.88;9.30;;;24.30;99.90;;;;;;4938514;29;20193;-92
2023/04/23 08:09:35;;;;;;;12.60;10.13;;;24.20;99.90;;;;;;4946228;23;20212;-80
2023/04/23 08:12:02;;;;;;;9.98;8.95;;;24.30;99.90;;;;;;4925308;23;20257;-80
2023/04/23 08:14:29;;;;;;;11.45;9.30;;;24.30;99.90;;;;;;4915738;29;20653;-78
2023/04/23 08:16:56;;;;;;;11.95;8.80;;;24.40;99.90;;;;;;4916064;29;20302;-80
2023/04/23 08:19:23;;;;;;;10.73;9.32;;;24.40;99.90;;;;;;4914195;29;20260;-79
2023/04/23 08:21:51;;;;;;;9.88;8.10;;;24.40;99.90;;;;;;4916540;29;20206;-80
2023/04/23 08:24:21;;;;;;;11.65;9.88;;;24.30;99.90;;;;;;4901891;29;20221;-79
2023/04/23 08:26:50;;;;;;;10.05;9.00;;;24.10;99.90;;;;;;4912932;29;20224;-80
2023/04/23 08:29:17;;;;;;;9.98;8.93;;;24.10;99.90;;;;;;4912545;29;20213;-80
2023/04/23 08:31:43;;;;;;;10.80;8.93;;;24.10;99.90;;;;;;4896960;29;20272;-79
2023/04/23 08:34:11;;;;;;;10.02;7.70;;;24.20;99.90;;;;;;4909042;29;20244;-81
2023/04/23 08:36:38;;;;;;;8.55;7.57;;;24.20;99.90;;;;;;4896610;29;20210;-78
2023/04/23 08:39:06;;;;;;;9.45;7.70;;;24.20;99.90;;;;;;4893191;29;20258;-79
2023/04/23 08:41:41;;;;;;;12.90;7.80;;;24.40;99.90;;;;;;4913523;29;20209;-79
2023/04/23 08:44:18;;;;;;;7.38;6.68;;;24.50;99.90;;;;;;4906602;29;20225;-78
2023/04/23 08:46:45;;;;;;;7.60;5.95;;;24.40;99.90;;;;;;4913034;29;20225;-78
2023/04/23 08:49:15;;;;;;;7.63;6.18;;;24.20;99.90;;;;;;4912212;29;20205;-79
2023/04/23 08:52:10;;;;;;;7.43;5.70;;;23.70;99.90;;;;;;4908955;29;20233;-78
2023/04/23 08:54:42;;;;;;;7.53;6.03;;;23.50;99.90;;;;;;4899806;29;20218;-78
2023/04/23 08:57:09;;;;;;;7.25;5.82;;;23.60;99.90;;;;;;4905474;29;20645;-81
2023/04/23 08:59:38;;;;;;;6.80;5.50;;;23.70;99.90;;;;;;4911184;29;20226;-78
2023/04/23 09:02:08;;;;;;;6.18;5.47;;;23.60;99.90;;;;;;4913702;29;20249;-79
2023/04/23 09:04:37;;;;;;;6.65;5.10;;;23.80;99.90;;;;;;4912857;29;20296;-80
2023/04/23 09:07:06;;;;;;;9.73;5.40;;;23.60;99.90;;;;;;4913358;29;20216;-79
2023/04/23 09:09:34;;;;;;;5.90;5.20;;;23.70;99.90;;;;;;4908236;29;20202;-80
2023/04/23 09:12:01;;;;;;;6.80;5.10;;;23.70;99.90;;;;;;4913197;29;20800;-80
2023/04/23 09:14:28;;;;;;;7.28;5.32;;;23.40;99.90;;;;;;4912985;29;20246;-76
2023/04/23 09:16:55;;;;;;;6.35;5.75;;;23.10;99.90;;;;;;4906368;29;20585;-78
2023/04/23 09:19:26;;;;;;;7.53;5.30;;;22.70;99.90;;;;;;4911819;29;20285;-79
2023/04/23 09:21:53;;;;;;;8.75;5.55;;;22.60;99.90;;;;;;4912788;29;20208;-77
2023/04/23 09:24:23;;;;;;;7.68;5.40;;;22.30;99.90;;;;;;4895761;29;20210;-80
2023/04/23 09:26:51;;;;;;;8.80;5.13;;;22.10;99.90;;;;;;4913299;29;20344;-77
2023/04/23 09:29:20;;;;;;;8.30;4.72;;;21.80;99.90;;;;;;4913138;29;20602;-79
2023/04/23 09:31:50;;;;;;;10.80;4.75;;;22.00;99.90;;;;;;4895496;29;20245;-78
2023/04/23 09:34:18;;;;;;;9.63;3.95;;;21.90;99.90;;;;;;4916458;29;20213;-79
2023/04/23 09:36:49;;;;;;;8.65;3.58;;;22.10;99.90;;;;;;4904276;29;20218;-78
2023/04/23 09:39:23;;;;;;;6.00;3.92;;;22.10;99.90;;;;;;4914582;29;20621;-75
2023/04/23 09:41:53;;;;;;;6.88;3.83;;;22.30;99.90;;;;;;4918004;29;20708;-79
2023/04/23 09:44:23;;;;;;;6.63;3.45;;;22.40;99.90;;;;;;4917450;29;20222;-78
2023/04/23 09:46:49;;;;;;;7.47;3.65;;;22.30;99.90;;;;;;4913104;29;20301;-79
2023/04/23 09:49:16;;;;;;;6.47;2.58;;;22.30;99.90;;;;;;4915258;29;20208;-79
2023/04/23 09:51:48;;;;;;;10.20;3.08;;;22.30;99.90;;;;;;4914052;29;20644;-80
2023/04/23 09:54:21;;;;;;;7.93;3.10;;;22.30;99.90;;;;;;4916621;29;20214;-79
2023/04/23 09:56:50;;;;;;;4.90;2.58;;;22.50;99.90;;;;;;4913050;29;20210;-79
2023/04/23 09:59:25;;;;;;;7.30;2.90;;;22.50;99.90;;;;;;4916099;29;20222;-80
2023/04/23 10:02:12;;;;;;;7.32;2.85;;;22.70;99.90;;;;;;4903257;29;20205;-79
2023/04/23 10:04:39;;;;;;;6.88;2.80;;;22.60;99.90;;;;;;4916263;29;20618;-80
2023/04/23 10:07:12;;;;;;;11.48;3.22;;;22.50;99.90;;;;;;4919221;29;20238;-81
2023/04/23 10:09:46;;;;;;;7.90;2.60;;;22.10;99.90;;;;;;4915496;29;20201;-78
2023/04/23 10:12:13;;;;;;;4.55;2.42;;;21.80;99.90;;;;;;4915475;29;20691;-79
2023/04/23 10:14:45;;;;;;;6.40;2.53;;;21.60;99.90;;;;;;4915869;29;20549;-80
2023/04/23 10:17:12;;;;;;;11.02;2.83;;;21.70;99.90;;;;;;4916112;29;20209;-80
2023/04/23 10:19:41;;;;;;;6.13;2.58;;;21.70;99.90;;;;;;4915896;29;20265;-80
2023/04/23 10:22:11;;;;;;;7.47;2.78;;;21.70;99.90;;;;;;4897579;29;20261;-78
2023/04/23 10:24:51;;;;;;;5.05;1.98;;;21.80;99.90;;;;;;4899167;29;20220;-79
2023/04/23 10:27:21;;;;;;;5.15;1.90;;;21.80;99.90;;;;;;4900491;29;20302;-78
2023/04/23 10:30:04;;;;;;;5.50;2.65;;;22.00;99.90;;;;;;4917988;29;20221;-78
2023/04/23 10:32:36;;;;;;;9.57;2.60;;;22.10;99.90;;;;;;4914736;29;20677;-79
2023/04/23 10:35:04;;;;;;;5.50;2.13;;;21.90;99.90;;;;;;4915356;29;20268;-78
2023/04/23 10:37:31;;;;;;;7.07;2.20;;;21.80;99.90;;;;;;4903020;29;20288;-78
2023/04/23 10:40:08;;;;;;;6.00;2.00;;;21.50;99.90;;;;;;4914521;29;20261;-80
2023/04/23 10:42:42;;;;;;;7.00;2.10;;;21.30;99.90;;;;;;4900427;29;20285;-78
2023/04/23 10:45:19;;;;;;;6.40;2.30;;;21.40;99.90;;;;;;4913952;29;20225;-80
2023/04/23 10:47:53;;;;;;;7.93;2.10;;;21.60;99.90;;;;;;4914190;29;20678;-78
2023/04/23 11:10:13;;;;;;;4.75;2.10;;;20.60;99.90;;;;;;4947474;23;20257;-79
2023/04/23 11:12:41;;;;;;;4.45;1.85;;;20.50;99.90;;;;;;4892293;29;20753;-82
2023/04/23 11:15:12;;;;;;;4.90;1.63;;;20.30;99.90;;;;;;4893994;29;20254;-82
2023/04/23 11:17:47;;;;;;;7.53;2.10;;;20.20;99.90;;;;;;4895176;29;20214;-80
2023/04/23 11:20:22;;;;;;;3.83;1.60;;;19.80;99.90;;;;;;4890760;29;20260;-79
2023/04/23 11:22:50;;;;;;;6.80;1.83;;;19.90;99.90;;;;;;4890492;29;20687;-79
2023/04/23 11:25:23;;;;;;;4.18;1.70;;;19.80;99.90;;;;;;4889406;29;20723;-79
2023/04/23 11:27:51;;;;;;;5.07;1.70;;;19.90;99.90;;;;;;4886884;29;20215;-77
2023/04/23 11:30:26;;;;;;;5.10;1.63;;;20.10;99.90;;;;;;4888442;29;20253;-77
2023/04/23 11:32:56;;;;;;;10.73;2.05;;;20.20;99.90;;;;;;4888521;29;20751;-77
2023/04/23 11:35:29;;;;;;;7.25;1.90;;;20.40;99.90;;;;;;4890016;29;20208;-78
2023/04/23 11:37:56;;;;;;;5.85;1.90;;;20.20;99.90;;;;;;4890714;29;20218;-77
2023/04/23 11:40:23;;;;;;;4.45;1.35;;;20.40;99.90;;;;;;4891667;29;20210;-77
2023/04/23 11:42:53;;;;;;;4.60;1.58;;;20.40;99.90;;;;;;4889274;29;20629;-77
2023/04/23 11:45:23;;;;;;;4.35;1.77;;;20.50;99.90;;;;;;4894494;29;20274;-77
2023/04/23 11:47:57;;;;;;;4.38;1.50;;;20.50;99.90;;;;;;4890484;29;20683;-77
2023/04/23 11:50:28;;;;;;;6.07;1.60;;;20.70;99.90;;;;;;4889479;29;20667;-77
2023/04/23 11:52:56;;;;;;;5.85;1.77;;;20.80;99.90;;;;;;4894456;29;20730;-78
2023/04/23 11:55:23;;;;;;;4.97;1.70;;;20.80;99.90;;;;;;4889287;29;20575;-76
2023/04/23 11:57:51;;;;;;;4.18;1.60;;;20.80;99.90;;;;;;4891280;29;20234;-77
2023/04/23 12:00:20;;;;;;;5.13;1.77;;;20.70;99.90;;;;;;4891985;29;20222;-78
2023/04/23 12:03:03;;;;;;;5.93;1.52;;;20.60;99.90;;;;;;4874037;29;20313;-77
2023/04/23 12:05:36;;;;;;;7.63;1.85;;;20.40;99.90;;;;;;4891426;29;20202;-78
2023/04/23 12:08:15;;;;;;;6.43;1.98;;;20.20;99.90;;;;;;4887808;29;20204;-77
2023/04/23 12:10:45;;;;;;;5.32;1.80;;;20.20;99.90;;;;;;4891863;29;20231;-79
2023/04/23 12:13:14;;;;;;;7.15;1.75;;;20.10;99.90;;;;;;4892754;29;20222;-77
2023/04/23 12:16:04;;;;;;;8.80;1.80;;;20.10;99.90;;;;;;4892880;29;20689;-77
2023/04/23 12:18:37;;;;;;;5.63;1.40;;;20.40;99.90;;;;;;4893942;29;20207;-78
2023/04/23 12:21:05;;;;;;;6.30;1.88;;;20.70;99.90;;;;;;4887767;29;20210;-78
2023/04/23 12:23:34;;;;;;;6.90;1.52;;;21.00;99.90;;;;;;4886667;29;20325;-79
2023/04/23 12:26:05;;;;;;;5.28;1.55;;;21.10;99.90;;;;;;4886074;29;20258;-79
2023/04/23 12:28:32;;;;;;;4.32;1.55;;;21.00;99.90;;;;;;4891518;29;20213;-78
2023/04/23 12:31:01;;;;;;;6.40;1.70;;;21.00;99.90;;;;;;4891740;29;20265;-78
2023/04/23 12:33:29;;;;;;;4.13;1.90;;;20.90;99.90;;;;;;4892170;29;20207;-77
2023/04/23 12:35:57;;;;;;;5.82;1.73;;;20.90;99.90;;;;;;4890534;29;20195;-78
2023/04/23 12:38:26;;;;;;;5.93;1.30;;;20.80;99.90;;;;;;4890052;29;20256;-77
2023/04/23 12:40:54;;;;;;;6.80;1.70;;;20.90;99.90;;;;;;4888254;29;20639;-77
2023/04/23 12:43:21;;;;;;;4.47;1.92;;;20.70;99.90;;;;;;4888383;29;20268;-75
2023/04/23 12:45:48;;;;;;;5.95;1.65;;;20.70;99.90;;;;;;4889011;29;20380;-77
2023/04/23 12:48:15;;;;;;;5.20;1.73;;;20.70;99.90;;;;;;4889515;29;20478;-76
2023/04/23 12:50:42;;;;;;;4.78;1.55;;;20.70;99.90;;;;;;4886820;29;20207;-76
2023/04/23 12:53:08;;;;;;;4.03;1.58;;;20.60;99.90;;;;;;4895459;29;20297;-76
2023/04/23 12:55:37;;;;;;;4.45;1.60;;;20.70;99.90;;;;;;4887244;29;20207;-78
2023/04/23 12:58:05;;;;;;;3.67;1.40;;;20.80;99.90;;;;;;4890068;29;20298;-77
2023/04/23 13:00:32;;;;;;;6.05;2.05;;;20.90;99.90;;;;;;4887173;29;20306;-78
2023/04/23 13:03:00;;;;;;;6.93;1.65;;;21.00;99.90;;;;;;4891799;29;20736;-78
2023/04/23 13:05:27;;;;;;;8.02;1.90;;;21.10;99.90;;;;;;4890829;29;20330;-78
2023/04/23 13:07:54;;;;;;;6.07;2.08;;;21.40;99.90;;;;;;4888441;29;20265;-77